sensor_id;sensor_type;location;lat;lon;timestamp;pressure;altitude;pressure_sealevel;temperature;humidity
86083;BME280;76693;50.220;14.298;2024-03-22T00:02:14;99965.06;;;6.91;78.75
86083;BME280;76693;50.220;14.298;2024-03-22T00:04:39;99962.56;;;7.07;79.31
86083;BME280;76693;50.220;14.298;2024-03-22T00:07:04;99961.09;;;6.96;79.42
86083;BME280;76693;50.220;14.298;2024-03-22T00:09:30;99967.09;;;7.11;78.91
86083;BME280;76693;50.220;14.298;2024-03-22T00:11:55;99964.88;;;7.17;77.93
86083;BME280;76693;50.220;14.298;2024-03-22T00:14:20;99964.38;;;7.08;77.50
86083;BME280;76693;50.220;14.298;2024-03-22T00:16:46;99963.31;;;6.75;78.01
86083;BME280;76693;50.220;14.298;2024-03-22T00:19:11;99960.31;;;6.67;78.55
86083;BME280;76693;50.220;14.298;2024-03-22T00:21:36;99965.06;;;6.76;79.80
86083;BME280;76693;50.220;14.298;2024-03-22T00:24:02;99966.28;;;7.27;77.82
86083;BME280;76693;50.220;14.298;2024-03-22T00:26:27;99958.19;;;7.36;77.13
86083;BME280;76693;50.220;14.298;2024-03-22T00:28:53;99955.56;;;7.34;77.28
86083;BME280;76693;50.220;14.298;2024-03-22T00:31:18;99946.69;;;7.44;76.96
86083;BME280;76693;50.220;14.298;2024-03-22T00:33:44;99949.09;;;7.57;76.92
86083;BME280;76693;50.220;14.298;2024-03-22T00:36:10;99942.94;;;7.22;77.21
86083;BME280;76693;50.220;14.298;2024-03-22T00:38:35;99944.19;;;7.45;77.20
86083;BME280;76693;50.220;14.298;2024-03-22T00:41:01;99944.31;;;7.32;77.45
86083;BME280;76693;50.220;14.298;2024-03-22T00:43:26;99947.81;;;7.03;78.20
86083;BME280;76693;50.220;14.298;2024-03-22T00:45:51;99941.78;;;7.17;78.04
86083;BME280;76693;50.220;14.298;2024-03-22T00:48:17;99947.19;;;7.22;77.53
86083;BME280;76693;50.220;14.298;2024-03-22T00:50:43;99942.94;;;7.08;77.96
86083;BME280;76693;50.220;14.298;2024-03-22T00:53:08;99942.94;;;7.22;77.20
86083;BME280;76693;50.220;14.298;2024-03-22T00:55:35;99940.22;;;7.36;77.03
86083;BME280;76693;50.220;14.298;2024-03-22T00:58:00;99940.66;;;7.12;77.99
86083;BME280;76693;50.220;14.298;2024-03-22T01:00:26;99929.28;;;7.23;77.63
86083;BME280;76693;50.220;14.298;2024-03-22T01:02:51;99940.53;;;7.25;77.80
86083;BME280;76693;50.220;14.298;2024-03-22T01:05:17;99938.94;;;7.28;77.97
86083;BME280;76693;50.220;14.298;2024-03-22T01:07:43;99939.56;;;7.23;77.89
86083;BME280;76693;50.220;14.298;2024-03-22T01:10:08;99931.22;;;7.28;78.65
86083;BME280;76693;50.220;14.298;2024-03-22T01:12:34;99938.78;;;7.41;77.43
86083;BME280;76693;50.220;14.298;2024-03-22T01:14:59;99943.31;;;7.45;77.10
86083;BME280;76693;50.220;14.298;2024-03-22T01:17:24;99940.72;;;7.45;77.02
86083;BME280;76693;50.220;14.298;2024-03-22T01:19:50;99938.09;;;7.43;77.58
86083;BME280;76693;50.220;14.298;2024-03-22T01:22:17;99930.66;;;7.48;77.44
86083;BME280;76693;50.220;14.298;2024-03-22T01:24:43;99929.69;;;7.62;77.05
86083;BME280;76693;50.220;14.298;2024-03-22T01:27:08;99923.47;;;7.73;76.66
86083;BME280;76693;50.220;14.298;2024-03-22T01:29:33;99926.22;;;7.93;75.99
86083;BME280;76693;50.220;14.298;2024-03-22T01:31:59;99925.41;;;7.78;76.62
86083;BME280;76693;50.220;14.298;2024-03-22T01:34:24;99933.91;;;7.77;76.78
86083;BME280;76693;50.220;14.298;2024-03-22T01:36:51;99929.31;;;7.87;77.21
86083;BME280;76693;50.220;14.298;2024-03-22T01:39:18;99935.66;;;7.78;77.01
86083;BME280;76693;50.220;14.298;2024-03-22T01:41:46;99929.75;;;7.47;76.76
86083;BME280;76693;50.220;14.298;2024-03-22T01:44:11;99926.00;;;7.57;76.78
86083;BME280;76693;50.220;14.298;2024-03-22T01:46:39;99920.75;;;7.87;77.83
86083;BME280;76693;50.220;14.298;2024-03-22T01:49:04;99927.31;;;7.82;76.24
86083;BME280;76693;50.220;14.298;2024-03-22T01:51:30;99914.66;;;8.01;76.10
86083;BME280;76693;50.220;14.298;2024-03-22T01:53:58;99918.41;;;7.91;76.13
86083;BME280;76693;50.220;14.298;2024-03-22T01:56:26;99903.75;;;7.89;76.43
86083;BME280;76693;50.220;14.298;2024-03-22T01:58:52;99905.81;;;7.96;76.58
86083;BME280;76693;50.220;14.298;2024-03-22T02:01:17;99899.31;;;7.86;76.37
86083;BME280;76693;50.220;14.298;2024-03-22T02:03:42;99902.59;;;7.67;77.01
86083;BME280;76693;50.220;14.298;2024-03-22T02:06:08;99901.16;;;7.72;76.72
86083;BME280;76693;50.220;14.298;2024-03-22T02:08:35;99897.47;;;7.67;77.25
86083;BME280;76693;50.220;14.298;2024-03-22T02:11:00;99889.44;;;7.78;77.12
86083;BME280;76693;50.220;14.298;2024-03-22T02:13:26;99886.88;;;7.94;76.76
86083;BME280;76693;50.220;14.298;2024-03-22T02:15:52;99886.06;;;7.95;76.64
86083;BME280;76693;50.220;14.298;2024-03-22T02:18:17;99872.28;;;7.77;76.42
86083;BME280;76693;50.220;14.298;2024-03-22T02:20:42;99864.25;;;7.87;77.20
86083;BME280;76693;50.220;14.298;2024-03-22T02:23:08;99858.16;;;8.01;75.95
86083;BME280;76693;50.220;14.298;2024-03-22T02:25:33;99862.31;;;7.83;76.24
86083;BME280;76693;50.220;14.298;2024-03-22T02:27:58;99863.28;;;7.68;77.05
86083;BME280;76693;50.220;14.298;2024-03-22T02:30:24;99857.03;;;7.80;77.57
86083;BME280;76693;50.220;14.298;2024-03-22T02:32:49;99842.41;;;7.62;76.93
86083;BME280;76693;50.220;14.298;2024-03-22T02:35:14;99841.63;;;7.63;76.90
86083;BME280;76693;50.220;14.298;2024-03-22T02:37:40;99831.25;;;7.62;76.59
86083;BME280;76693;50.220;14.298;2024-03-22T02:40:06;99832.06;;;7.44;77.74
86083;BME280;76693;50.220;14.298;2024-03-22T02:42:31;99823.69;;;7.32;77.65
86083;BME280;76693;50.220;14.298;2024-03-22T02:44:57;99827.16;;;7.33;77.90
86083;BME280;76693;50.220;14.298;2024-03-22T02:47:22;99823.06;;;7.36;78.48
86083;BME280;76693;50.220;14.298;2024-03-22T02:49:47;99823.47;;;7.28;78.81
86083;BME280;76693;50.220;14.298;2024-03-22T02:52:12;99815.47;;;7.38;78.62
86083;BME280;76693;50.220;14.298;2024-03-22T02:54:38;99817.34;;;7.09;78.65
86083;BME280;76693;50.220;14.298;2024-03-22T02:57:03;99819.59;;;7.19;78.62
86083;BME280;76693;50.220;14.298;2024-03-22T02:59:29;99821.34;;;7.20;78.44
86083;BME280;76693;50.220;14.298;2024-03-22T03:01:54;99816.75;;;7.30;79.65
86083;BME280;76693;50.220;14.298;2024-03-22T03:04:20;99812.72;;;7.18;78.10
86083;BME280;76693;50.220;14.298;2024-03-22T03:06:45;99818.09;;;7.23;79.46
86083;BME280;76693;50.220;14.298;2024-03-22T03:09:11;99809.09;;;7.15;79.77
86083;BME280;76693;50.220;14.298;2024-03-22T03:11:38;99796.75;;;7.24;78.59
86083;BME280;76693;50.220;14.298;2024-03-22T03:14:04;99796.81;;;7.09;79.74
86083;BME280;76693;50.220;14.298;2024-03-22T03:16:29;99797.16;;;7.15;79.16
86083;BME280;76693;50.220;14.298;2024-03-22T03:18:54;99806.69;;;7.18;78.94
86083;BME280;76693;50.220;14.298;2024-03-22T03:21:20;99802.72;;;6.92;79.42
86083;BME280;76693;50.220;14.298;2024-03-22T03:23:45;99791.06;;;7.13;79.48
86083;BME280;76693;50.220;14.298;2024-03-22T03:26:11;99797.00;;;7.12;78.57
86083;BME280;76693;50.220;14.298;2024-03-22T03:28:36;99799.84;;;7.02;78.54
86083;BME280;76693;50.220;14.298;2024-03-22T03:31:01;99801.13;;;6.94;79.87
86083;BME280;76693;50.220;14.298;2024-03-22T03:33:27;99789.72;;;6.89;79.70
86083;BME280;76693;50.220;14.298;2024-03-22T03:35:52;99790.41;;;7.01;79.70
86083;BME280;76693;50.220;14.298;2024-03-22T03:38:17;99787.84;;;7.01;79.31
86083;BME280;76693;50.220;14.298;2024-03-22T03:40:43;99792.47;;;6.92;80.10
86083;BME280;76693;50.220;14.298;2024-03-22T03:43:08;99784.28;;;6.99;80.16
86083;BME280;76693;50.220;14.298;2024-03-22T03:45:36;99783.31;;;6.81;79.50
86083;BME280;76693;50.220;14.298;2024-03-22T03:48:02;99781.53;;;6.80;79.36
86083;BME280;76693;50.220;14.298;2024-03-22T03:50:28;99782.03;;;6.89;79.30
86083;BME280;76693;50.220;14.298;2024-03-22T03:52:53;99780.59;;;6.94;80.00
86083;BME280;76693;50.220;14.298;2024-03-22T03:55:18;99781.34;;;6.91;79.69
86083;BME280;76693;50.220;14.298;2024-03-22T03:57:44;99784.47;;;7.02;79.99
86083;BME280;76693;50.220;14.298;2024-03-22T04:00:09;99775.66;;;6.97;79.86
86083;BME280;76693;50.220;14.298;2024-03-22T04:02:34;99786.19;;;6.87;79.85
86083;BME280;76693;50.220;14.298;2024-03-22T04:05:00;99783.31;;;6.81;79.69
86083;BME280;76693;50.220;14.298;2024-03-22T04:07:25;99781.19;;;6.73;80.92
86083;BME280;76693;50.220;14.298;2024-03-22T04:09:51;99780.06;;;6.68;80.60
86083;BME280;76693;50.220;14.298;2024-03-22T04:12:16;99778.16;;;6.81;79.67
86083;BME280;76693;50.220;14.298;2024-03-22T04:14:41;99778.38;;;6.69;80.47
86083;BME280;76693;50.220;14.298;2024-03-22T04:17:06;99779.44;;;6.72;80.78
86083;BME280;76693;50.220;14.298;2024-03-22T04:19:32;99775.19;;;6.73;80.86
86083;BME280;76693;50.220;14.298;2024-03-22T04:21:57;99773.19;;;6.67;81.38
86083;BME280;76693;50.220;14.298;2024-03-22T04:24:22;99774.59;;;6.62;81.41
86083;BME280;76693;50.220;14.298;2024-03-22T04:26:48;99777.00;;;6.59;81.45
86083;BME280;76693;50.220;14.298;2024-03-22T04:29:13;99771.25;;;6.63;82.02
86083;BME280;76693;50.220;14.298;2024-03-22T04:31:39;99776.59;;;6.83;80.77
86083;BME280;76693;50.220;14.298;2024-03-22T04:34:04;99773.69;;;6.77;80.77
86083;BME280;76693;50.220;14.298;2024-03-22T04:36:32;99776.28;;;6.62;81.06
86083;BME280;76693;50.220;14.298;2024-03-22T04:38:58;99772.41;;;6.85;80.93
86083;BME280;76693;50.220;14.298;2024-03-22T04:41:23;99778.03;;;6.94;80.70
86083;BME280;76693;50.220;14.298;2024-03-22T04:43:48;99777.53;;;6.85;81.03
86083;BME280;76693;50.220;14.298;2024-03-22T04:46:14;99775.59;;;6.81;81.94
86083;BME280;76693;50.220;14.298;2024-03-22T04:48:39;99773.22;;;6.84;81.15
86083;BME280;76693;50.220;14.298;2024-03-22T04:51:04;99765.56;;;7.00;81.09
86083;BME280;76693;50.220;14.298;2024-03-22T04:53:30;99763.63;;;6.96;81.18
86083;BME280;76693;50.220;14.298;2024-03-22T04:55:55;99764.50;;;6.96;80.93
86083;BME280;76693;50.220;14.298;2024-03-22T04:58:21;99762.09;;;6.83;81.19
86083;BME280;76693;50.220;14.298;2024-03-22T05:00:47;99767.47;;;6.88;82.75
86083;BME280;76693;50.220;14.298;2024-03-22T05:03:14;99766.66;;;6.89;80.66
86083;BME280;76693;50.220;14.298;2024-03-22T05:05:40;99764.22;;;6.75;81.48
86083;BME280;76693;50.220;14.298;2024-03-22T05:08:06;99764.63;;;6.52;81.87
86083;BME280;76693;50.220;14.298;2024-03-22T05:10:32;99771.56;;;6.38;82.43
86083;BME280;76693;50.220;14.298;2024-03-22T05:12:58;99774.53;;;6.46;81.92
86083;BME280;76693;50.220;14.298;2024-03-22T05:15:23;99779.41;;;6.41;82.47
86083;BME280;76693;50.220;14.298;2024-03-22T05:17:51;99772.81;;;6.61;82.25
86083;BME280;76693;50.220;14.298;2024-03-22T05:20:16;99775.56;;;6.64;81.32
86083;BME280;76693;50.220;14.298;2024-03-22T05:22:42;99784.06;;;6.63;81.17
86083;BME280;76693;50.220;14.298;2024-03-22T05:25:08;99781.50;;;6.63;80.50
86083;BME280;76693;50.220;14.298;2024-03-22T05:27:33;99777.84;;;6.74;80.39
86083;BME280;76693;50.220;14.298;2024-03-22T05:29:59;99775.22;;;6.58;80.72
86083;BME280;76693;50.220;14.298;2024-03-22T05:32:25;99771.19;;;6.78;81.73
86083;BME280;76693;50.220;14.298;2024-03-22T05:34:51;99763.00;;;6.69;80.50
86083;BME280;76693;50.220;14.298;2024-03-22T05:37:16;99757.34;;;6.74;80.86
86083;BME280;76693;50.220;14.298;2024-03-22T05:39:42;99761.72;;;6.77;81.27
86083;BME280;76693;50.220;14.298;2024-03-22T05:42:08;99769.81;;;6.68;80.45
86083;BME280;76693;50.220;14.298;2024-03-22T05:44:33;99757.88;;;6.69;80.50
86083;BME280;76693;50.220;14.298;2024-03-22T05:46:58;99763.00;;;6.69;80.38
86083;BME280;76693;50.220;14.298;2024-03-22T05:49:23;99762.69;;;6.48;80.15
86083;BME280;76693;50.220;14.298;2024-03-22T05:51:49;99759.19;;;6.46;80.95
86083;BME280;76693;50.220;14.298;2024-03-22T05:54:14;99758.81;;;6.40;81.34
86083;BME280;76693;50.220;14.298;2024-03-22T05:56:39;99756.50;;;6.59;81.43
86083;BME280;76693;50.220;14.298;2024-03-22T05:59:05;99760.72;;;6.59;79.75
86083;BME280;76693;50.220;14.298;2024-03-22T06:01:31;99756.44;;;6.43;80.63
86083;BME280;76693;50.220;14.298;2024-03-22T06:03:57;99757.22;;;6.42;80.42
86083;BME280;76693;50.220;14.298;2024-03-22T06:06:22;99758.97;;;6.58;81.15
86083;BME280;76693;50.220;14.298;2024-03-22T06:08:50;99750.66;;;6.62;80.61
86083;BME280;76693;50.220;14.298;2024-03-22T06:11:18;99756.44;;;6.74;79.91
86083;BME280;76693;50.220;14.298;2024-03-22T06:13:43;99760.66;;;6.88;80.73
86083;BME280;76693;50.220;14.298;2024-03-22T06:16:09;99747.84;;;7.05;79.05
86083;BME280;76693;50.220;14.298;2024-03-22T06:18:35;99747.28;;;7.10;78.36
86083;BME280;76693;50.220;14.298;2024-03-22T06:21:00;99743.28;;;7.32;77.39
86083;BME280;76693;50.220;14.298;2024-03-22T06:23:26;99748.88;;;7.41;77.11
86083;BME280;76693;50.220;14.298;2024-03-22T06:25:55;99740.75;;;7.66;75.70
86083;BME280;76693;50.220;14.298;2024-03-22T06:28:21;99745.16;;;7.85;75.08
86083;BME280;76693;50.220;14.298;2024-03-22T06:30:46;99744.06;;;7.80;74.77
86083;BME280;76693;50.220;14.298;2024-03-22T06:33:12;99745.47;;;7.74;74.39
86083;BME280;76693;50.220;14.298;2024-03-22T06:35:37;99736.88;;;8.08;73.92
86083;BME280;76693;50.220;14.298;2024-03-22T06:38:03;99734.00;;;8.54;75.33
86083;BME280;76693;50.220;14.298;2024-03-22T06:40:29;99737.09;;;8.47;72.95
86083;BME280;76693;50.220;14.298;2024-03-22T06:42:55;99738.13;;;8.68;73.44
86083;BME280;76693;50.220;14.298;2024-03-22T06:45:22;99728.56;;;8.48;72.70
86083;BME280;76693;50.220;14.298;2024-03-22T06:47:47;99733.06;;;8.52;72.57
86083;BME280;76693;50.220;14.298;2024-03-22T06:50:13;99735.41;;;8.85;71.77
86083;BME280;76693;50.220;14.298;2024-03-22T06:52:38;99728.56;;;9.03;70.43
86083;BME280;76693;50.220;14.298;2024-03-22T06:55:04;99728.56;;;9.03;70.46
86083;BME280;76693;50.220;14.298;2024-03-22T06:57:30;99718.88;;;9.36;70.56
86083;BME280;76693;50.220;14.298;2024-03-22T06:59:55;99723.31;;;9.60;68.94
86083;BME280;76693;50.220;14.298;2024-03-22T07:02:20;99715.81;;;9.25;69.34
86083;BME280;76693;50.220;14.298;2024-03-22T07:04:46;99712.84;;;9.16;69.65
86083;BME280;76693;50.220;14.298;2024-03-22T07:07:11;99714.34;;;9.11;69.04
86083;BME280;76693;50.220;14.298;2024-03-22T07:09:36;99712.44;;;9.27;68.10
86083;BME280;76693;50.220;14.298;2024-03-22T07:12:02;99705.25;;;9.39;67.57
86083;BME280;76693;50.220;14.298;2024-03-22T07:14:27;99700.09;;;9.39;67.32
86083;BME280;76693;50.220;14.298;2024-03-22T07:16:53;99700.63;;;9.51;67.17
86083;BME280;76693;50.220;14.298;2024-03-22T07:19:19;99705.31;;;9.81;67.20
86083;BME280;76693;50.220;14.298;2024-03-22T07:21:46;99706.69;;;9.93;65.82
86083;BME280;76693;50.220;14.298;2024-03-22T07:24:11;99703.28;;;10.15;66.23
86083;BME280;76693;50.220;14.298;2024-03-22T07:26:36;99705.69;;;10.11;64.80
86083;BME280;76693;50.220;14.298;2024-03-22T07:29:02;99701.16;;;10.24;65.07
86083;BME280;76693;50.220;14.298;2024-03-22T07:31:27;99698.91;;;10.13;64.56
86083;BME280;76693;50.220;14.298;2024-03-22T07:33:53;99701.03;;;10.44;64.68
86083;BME280;76693;50.220;14.298;2024-03-22T07:36:19;99693.91;;;10.37;64.07
86083;BME280;76693;50.220;14.298;2024-03-22T07:38:44;99689.78;;;10.42;64.15
86083;BME280;76693;50.220;14.298;2024-03-22T07:41:10;99688.75;;;10.59;64.05
86083;BME280;76693;50.220;14.298;2024-03-22T07:43:36;99686.44;;;10.44;63.23
86083;BME280;76693;50.220;14.298;2024-03-22T07:46:01;99687.19;;;10.87;63.72
86083;BME280;76693;50.220;14.298;2024-03-22T07:48:26;99684.81;;;10.91;63.37
86083;BME280;76693;50.220;14.298;2024-03-22T07:50:58;99675.91;;;11.07;62.86
86083;BME280;76693;50.220;14.298;2024-03-22T07:53:24;99670.91;;;11.36;61.48
86083;BME280;76693;50.220;14.298;2024-03-22T07:55:49;99672.06;;;11.20;60.29
86083;BME280;76693;50.220;14.298;2024-03-22T07:58:15;99668.00;;;11.27;60.07
86083;BME280;76693;50.220;14.298;2024-03-22T08:00:40;99669.53;;;11.21;59.38
86083;BME280;76693;50.220;14.298;2024-03-22T08:03:06;99657.50;;;11.71;59.97
86083;BME280;76693;50.220;14.298;2024-03-22T08:05:31;99657.16;;;11.62;59.21
86083;BME280;76693;50.220;14.298;2024-03-22T08:07:57;99645.06;;;11.85;58.17
86083;BME280;76693;50.220;14.298;2024-03-22T08:10:22;99649.44;;;11.88;58.13
86083;BME280;76693;50.220;14.298;2024-03-22T08:12:48;99652.88;;;11.63;58.29
86083;BME280;76693;50.220;14.298;2024-03-22T08:15:13;99645.59;;;11.77;57.52
86083;BME280;76693;50.220;14.298;2024-03-22T08:17:39;99653.66;;;12.11;57.39
86083;BME280;76693;50.220;14.298;2024-03-22T08:20:05;99649.56;;;12.46;56.93
86083;BME280;76693;50.220;14.298;2024-03-22T08:22:30;99651.25;;;12.17;56.49
86083;BME280;76693;50.220;14.298;2024-03-22T08:24:56;99645.09;;;12.69;55.38
86083;BME280;76693;50.220;14.298;2024-03-22T08:27:21;99645.09;;;12.69;55.54
86083;BME280;76693;50.220;14.298;2024-03-22T08:29:47;99642.19;;;13.19;55.53
86083;BME280;76693;50.220;14.298;2024-03-22T08:32:12;99646.13;;;13.36;53.55
86083;BME280;76693;50.220;14.298;2024-03-22T08:34:37;99633.66;;;12.93;54.67
86083;BME280;76693;50.220;14.298;2024-03-22T08:37:03;99637.34;;;13.01;54.08
86083;BME280;76693;50.220;14.298;2024-03-22T08:39:29;99645.31;;;13.39;53.70
86083;BME280;76693;50.220;14.298;2024-03-22T08:41:55;99641.25;;;13.18;52.50
86083;BME280;76693;50.220;14.298;2024-03-22T08:44:21;99638.38;;;13.38;52.83
86083;BME280;76693;50.220;14.298;2024-03-22T08:46:47;99627.22;;;14.11;51.25
86083;BME280;76693;50.220;14.298;2024-03-22T08:49:12;99624.72;;;14.14;50.61
86083;BME280;76693;50.220;14.298;2024-03-22T08:51:38;99620.47;;;13.82;50.81
86083;BME280;76693;50.220;14.298;2024-03-22T08:54:04;99608.09;;;14.06;49.60
86083;BME280;76693;50.220;14.298;2024-03-22T08:56:30;99613.22;;;14.80;49.23
86083;BME280;76693;50.220;14.298;2024-03-22T08:58:55;99592.97;;;15.08;50.39
86083;BME280;76693;50.220;14.298;2024-03-22T09:01:21;99598.81;;;14.96;49.18
86083;BME280;76693;50.220;14.298;2024-03-22T09:03:47;99593.75;;;14.20;49.46
86083;BME280;76693;50.220;14.298;2024-03-22T09:06:14;99591.16;;;14.20;49.85
86083;BME280;76693;50.220;14.298;2024-03-22T09:08:39;99589.00;;;14.83;49.50
86083;BME280;76693;50.220;14.298;2024-03-22T09:11:05;99588.34;;;15.38;46.91
86083;BME280;76693;50.220;14.298;2024-03-22T09:13:31;99587.75;;;14.62;48.25
86083;BME280;76693;50.220;14.298;2024-03-22T09:15:59;99588.22;;;14.87;47.76
86083;BME280;76693;50.220;14.298;2024-03-22T09:18:25;99585.06;;;15.00;46.93
86083;BME280;76693;50.220;14.298;2024-03-22T09:20:51;99580.78;;;14.60;47.97
86083;BME280;76693;50.220;14.298;2024-03-22T09:23:17;99577.22;;;14.56;47.17
86083;BME280;76693;50.220;14.298;2024-03-22T09:25:42;99570.16;;;15.40;46.33
86083;BME280;76693;50.220;14.298;2024-03-22T09:28:08;99574.34;;;14.85;45.82
86083;BME280;76693;50.220;14.298;2024-03-22T09:30:37;99572.69;;;14.47;46.91
86083;BME280;76693;50.220;14.298;2024-03-22T09:33:03;99575.66;;;14.64;46.78
86083;BME280;76693;50.220;14.298;2024-03-22T09:35:28;99579.41;;;14.79;45.85
86083;BME280;76693;50.220;14.298;2024-03-22T09:37:54;99572.16;;;15.05;45.05
86083;BME280;76693;50.220;14.298;2024-03-22T09:40:19;99566.63;;;15.35;44.72
86083;BME280;76693;50.220;14.298;2024-03-22T09:42:47;99572.97;;;16.05;43.70
86083;BME280;76693;50.220;14.298;2024-03-22T09:45:15;99567.06;;;15.61;44.15
86083;BME280;76693;50.220;14.298;2024-03-22T09:47:44;99571.84;;;15.38;44.56
86083;BME280;76693;50.220;14.298;2024-03-22T09:50:10;99579.81;;;14.55;46.52
86083;BME280;76693;50.220;14.298;2024-03-22T09:52:38;99573.16;;;14.67;46.77
86083;BME280;76693;50.220;14.298;2024-03-22T09:55:05;99574.03;;;14.69;46.93
86083;BME280;76693;50.220;14.298;2024-03-22T09:57:30;99557.50;;;14.64;46.23
86083;BME280;76693;50.220;14.298;2024-03-22T09:59:56;99568.00;;;15.16;45.05
86083;BME280;76693;50.220;14.298;2024-03-22T10:02:23;99567.41;;;14.84;45.75
86083;BME280;76693;50.220;14.298;2024-03-22T10:04:50;99557.44;;;15.05;46.21
86083;BME280;76693;50.220;14.298;2024-03-22T10:07:16;99559.84;;;15.43;44.61
86083;BME280;76693;50.220;14.298;2024-03-22T10:09:41;99550.41;;;15.50;45.07
86083;BME280;76693;50.220;14.298;2024-03-22T10:12:07;99554.03;;;16.15;43.63
86083;BME280;76693;50.220;14.298;2024-03-22T10:14:33;99549.88;;;15.67;44.18
86083;BME280;76693;50.220;14.298;2024-03-22T10:16:58;99544.66;;;15.17;44.52
86083;BME280;76693;50.220;14.298;2024-03-22T10:19:24;99539.09;;;14.97;45.59
86083;BME280;76693;50.220;14.298;2024-03-22T10:22:02;99539.97;;;15.46;45.00
86083;BME280;76693;50.220;14.298;2024-03-22T10:24:29;99533.03;;;14.97;44.76
86083;BME280;76693;50.220;14.298;2024-03-22T10:26:55;99533.88;;;15.46;44.41
86083;BME280;76693;50.220;14.298;2024-03-22T10:29:21;99525.72;;;14.78;44.64
86083;BME280;76693;50.220;14.298;2024-03-22T10:31:47;99529.63;;;16.07;42.58
86083;BME280;76693;50.220;14.298;2024-03-22T10:34:14;99521.66;;;15.93;43.17
86083;BME280;76693;50.220;14.298;2024-03-22T10:36:41;99520.53;;;15.78;44.11
86083;BME280;76693;50.220;14.298;2024-03-22T10:39:07;99520.25;;;15.62;44.81
86083;BME280;76693;50.220;14.298;2024-03-22T10:41:34;99520.75;;;16.60;43.33
86083;BME280;76693;50.220;14.298;2024-03-22T10:43:59;99518.25;;;15.99;44.36
86083;BME280;76693;50.220;14.298;2024-03-22T10:46:29;99522.31;;;16.45;42.63
86083;BME280;76693;50.220;14.298;2024-03-22T10:48:55;99517.56;;;16.12;43.27
86083;BME280;76693;50.220;14.298;2024-03-22T10:51:22;99508.63;;;16.62;42.21
86083;BME280;76693;50.220;14.298;2024-03-22T10:53:49;99515.03;;;16.87;42.55
86083;BME280;76693;50.220;14.298;2024-03-22T10:56:16;99506.41;;;18.01;41.08
86083;BME280;76693;50.220;14.298;2024-03-22T10:58:42;99502.72;;;16.74;42.81
86083;BME280;76693;50.220;14.298;2024-03-22T11:01:22;99498.66;;;17.02;41.64
86083;BME280;76693;50.220;14.298;2024-03-22T11:03:48;99485.88;;;17.31;41.21
86083;BME280;76693;50.220;14.298;2024-03-22T11:06:18;99482.91;;;17.96;40.91
86083;BME280;76693;50.220;14.298;2024-03-22T11:08:44;99477.28;;;17.44;40.22
86083;BME280;76693;50.220;14.298;2024-03-22T11:11:14;99481.38;;;16.32;42.92
86083;BME280;76693;50.220;14.298;2024-03-22T11:13:42;99477.72;;;16.16;43.24
86083;BME280;76693;50.220;14.298;2024-03-22T11:16:09;99479.38;;;16.83;42.03
86083;BME280;76693;50.220;14.298;2024-03-22T11:18:35;99465.97;;;16.49;43.00
86083;BME280;76693;50.220;14.298;2024-03-22T11:21:00;99472.63;;;16.26;42.92
86083;BME280;76693;50.220;14.298;2024-03-22T11:23:25;99471.22;;;16.52;42.76
86083;BME280;76693;50.220;14.298;2024-03-22T11:25:51;99462.41;;;16.41;42.66
86083;BME280;76693;50.220;14.298;2024-03-22T11:28:16;99453.13;;;16.64;42.22
86083;BME280;76693;50.220;14.298;2024-03-22T11:30:42;99454.22;;;16.88;41.82
86083;BME280;76693;50.220;14.298;2024-03-22T11:33:08;99445.53;;;16.87;44.24
86083;BME280;76693;50.220;14.298;2024-03-22T11:35:33;99451.72;;;16.97;44.28
86083;BME280;76693;50.220;14.298;2024-03-22T11:37:59;99435.72;;;16.60;45.28
86083;BME280;76693;50.220;14.298;2024-03-22T11:40:28;99445.03;;;16.43;43.34
86083;BME280;76693;50.220;14.298;2024-03-22T11:42:55;99441.00;;;16.69;43.93
86083;BME280;76693;50.220;14.298;2024-03-22T11:45:21;99424.00;;;17.07;45.98
86083;BME280;76693;50.220;14.298;2024-03-22T11:47:48;99429.50;;;16.49;46.14
86083;BME280;76693;50.220;14.298;2024-03-22T11:50:14;99428.06;;;16.76;46.13
86083;BME280;76693;50.220;14.298;2024-03-22T11:52:43;99416.13;;;16.99;46.96
86083;BME280;76693;50.220;14.298;2024-03-22T11:55:10;99413.69;;;17.22;45.21
86083;BME280;76693;50.220;14.298;2024-03-22T11:57:36;99418.16;;;17.37;43.92
86083;BME280;76693;50.220;14.298;2024-03-22T12:00:04;99405.13;;;17.43;44.40
86083;BME280;76693;50.220;14.298;2024-03-22T12:02:35;99406.25;;;17.79;44.01
86083;BME280;76693;50.220;14.298;2024-03-22T12:05:01;99395.63;;;17.51;44.42
86083;BME280;76693;50.220;14.298;2024-03-22T12:07:28;99389.53;;;17.52;43.78
86083;BME280;76693;50.220;14.298;2024-03-22T12:09:53;99388.38;;;17.06;44.92
86083;BME280;76693;50.220;14.298;2024-03-22T12:12:21;99387.06;;;17.72;44.25
86083;BME280;76693;50.220;14.298;2024-03-22T12:14:46;99371.59;;;18.15;41.59
86083;BME280;76693;50.220;14.298;2024-03-22T12:17:12;99366.41;;;18.41;42.61
86083;BME280;76693;50.220;14.298;2024-03-22T12:19:37;99373.28;;;18.02;42.12
86083;BME280;76693;50.220;14.298;2024-03-22T12:22:02;99357.69;;;18.24;42.61
86083;BME280;76693;50.220;14.298;2024-03-22T12:24:28;99356.78;;;18.09;42.30
86083;BME280;76693;50.220;14.298;2024-03-22T12:26:53;99343.84;;;18.58;42.75
86083;BME280;76693;50.220;14.298;2024-03-22T12:29:19;99342.88;;;18.09;41.93
86083;BME280;76693;50.220;14.298;2024-03-22T12:31:44;99337.69;;;18.21;42.70
86083;BME280;76693;50.220;14.298;2024-03-22T12:34:10;99320.25;;;19.35;42.43
86083;BME280;76693;50.220;14.298;2024-03-22T12:36:35;99330.69;;;19.47;40.80
86083;BME280;76693;50.220;14.298;2024-03-22T12:39:01;99320.84;;;20.04;40.63
86083;BME280;76693;50.220;14.298;2024-03-22T12:41:28;99322.94;;;19.01;39.94
86083;BME280;76693;50.220;14.298;2024-03-22T12:43:58;99324.66;;;19.11;40.50
86083;BME280;76693;50.220;14.298;2024-03-22T12:46:24;99319.44;;;19.08;40.76
86083;BME280;76693;50.220;14.298;2024-03-22T12:48:50;99315.06;;;19.12;40.58